Time;durP1;ratioP1;P1;durP2;ratioP2;P2;SDS_P1;SDS_P2;PMS_P1;PMS_P2;Temp;Humidity;BMP_temperature;BMP_pressure;BME280_temperature;BME280_humidity;BME280_pressure;Samples;Min_cycle;Max_cycle;Signal;HPM_P1;HPM_P2
2022/08/21 00:00:59;;;;;;;0.77;0.70;;;24.90;58.60;;;;;;5041239;28;20070;-29
2022/08/21 00:03:24;;;;;;;0.50;0.45;;;24.90;58.90;;;;;;5008012;28;20028;-26
2022/08/21 00:05:50;;;;;;;1.13;0.75;;;24.90;58.80;;;;;;5042600;28;20039;-27
2022/08/21 00:08:17;;;;;;;0.85;0.60;;;24.90;58.80;;;;;;5041432;28;20024;-28
2022/08/21 00:10:42;;;;;;;0.65;0.40;;;24.90;58.60;;;;;;5044369;28;20488;-25
2022/08/21 00:13:08;;;;;;;0.60;0.40;;;24.90;58.80;;;;;;5028715;28;20075;-28
2022/08/21 00:15:35;;;;;;;1.05;0.50;;;24.90;58.70;;;;;;5044188;28;20030;-27
2022/08/21 00:18:00;;;;;;;0.50;0.40;;;24.90;58.70;;;;;;5044002;28;20502;-27
2022/08/21 00:20:26;;;;;;;0.50;0.50;;;24.90;58.60;;;;;;5042639;28;20021;-29
2022/08/21 00:22:52;;;;;;;0.60;0.52;;;24.90;58.70;;;;;;5045037;28;20065;-26
2022/08/21 00:25:17;;;;;;;0.60;0.40;;;24.90;58.40;;;;;;5040647;28;20078;-30
2022/08/21 00:27:43;;;;;;;0.52;0.35;;;24.90;59.00;;;;;;5041895;28;20098;-27
2022/08/21 00:30:10;;;;;;;0.60;0.40;;;24.90;58.40;;;;;;5042996;28;20025;-28
2022/08/21 00:32:36;;;;;;;0.60;0.40;;;24.90;58.40;;;;;;5045660;28;20056;-30
2022/08/21 00:35:03;;;;;;;0.40;0.40;;;24.90;58.60;;;;;;5030598;28;20041;-29
2022/08/21 00:37:28;;;;;;;1.08;0.60;;;24.90;58.40;;;;;;5046966;28;20013;-30
2022/08/21 00:39:54;;;;;;;0.40;0.40;;;24.90;58.70;;;;;;5042979;28;20044;-26
2022/08/21 00:42:20;;;;;;;0.55;0.50;;;24.80;58.70;;;;;;5046010;28;20021;-26
2022/08/21 00:44:46;;;;;;;0.70;0.35;;;24.90;58.80;;;;;;5043809;28;20041;-27
2022/08/21 00:47:12;;;;;;;0.95;0.50;;;24.90;58.70;;;;;;5047529;28;20028;-28
2022/08/21 00:49:38;;;;;;;0.60;0.50;;;24.80;58.80;;;;;;5042665;28;20029;-28
2022/08/21 00:52:04;;;;;;;0.73;0.60;;;24.80;58.70;;;;;;5044281;28;20389;-27
2022/08/21 00:54:30;;;;;;;2.17;0.77;;;24.80;58.70;;;;;;5027466;28;20028;-27
2022/08/21 00:57:00;;;;;;;0.60;0.40;;;24.80;58.70;;;;;;5025647;28;20503;-27
2022/08/21 00:59:26;;;;;;;0.50;0.50;;;24.80;58.80;;;;;;5027100;28;20488;-29
2022/08/21 01:01:52;;;;;;;0.65;0.60;;;24.80;58.70;;;;;;5011505;28;20024;-26
2022/08/21 01:04:17;;;;;;;0.47;0.40;;;24.80;58.70;;;;;;5044950;28;20183;-26
2022/08/21 01:06:43;;;;;;;0.75;0.50;;;24.80;58.70;;;;;;5041509;28;20025;-28
2022/08/21 01:09:09;;;;;;;0.65;0.50;;;24.80;58.70;;;;;;5045167;28;20038;-26
2022/08/21 01:11:35;;;;;;;0.75;0.47;;;24.80;58.80;;;;;;5043835;28;20580;-26
2022/08/21 01:14:01;;;;;;;0.80;0.50;;;24.80;58.90;;;;;;5027019;28;20029;-26
2022/08/21 01:16:27;;;;;;;0.75;0.60;;;24.80;58.90;;;;;;5029712;28;20483;-30
2022/08/21 01:18:52;;;;;;;0.50;0.50;;;24.80;58.80;;;;;;5027308;28;20275;-25
2022/08/21 01:21:23;;;;;;;0.80;0.60;;;24.80;58.90;;;;;;5042873;28;20021;-30
2022/08/21 01:23:50;;;;;;;0.63;0.52;;;24.80;59.00;;;;;;5045058;28;20385;-26
2022/08/21 01:26:18;;;;;;;1.45;0.77;;;24.80;59.00;;;;;;5046084;28;20021;-26
2022/08/21 01:28:49;;;;;;;0.65;0.60;;;24.80;59.00;;;;;;5042899;28;20033;-27
2022/08/21 01:31:15;;;;;;;1.35;0.70;;;24.80;59.10;;;;;;5026918;28;20032;-25
2022/08/21 01:33:40;;;;;;;0.73;0.63;;;24.70;59.10;;;;;;5046481;28;20412;-27
2022/08/21 01:36:06;;;;;;;0.40;0.32;;;24.70;59.00;;;;;;5045950;28;20492;-28
2022/08/21 01:38:32;;;;;;;0.50;0.45;;;24.70;59.10;;;;;;5046634;28;20045;-26
2022/08/21 01:40:57;;;;;;;0.60;0.60;;;24.70;59.20;;;;;;5047103;28;20048;-26
2022/08/21 01:43:23;;;;;;;1.25;0.68;;;24.70;59.20;;;;;;5045252;28;20025;-28
2022/08/21 01:45:49;;;;;;;0.68;0.60;;;24.70;59.20;;;;;;5041767;28;20040;-27
2022/08/21 01:48:14;;;;;;;0.98;0.60;;;24.70;59.20;;;;;;5042411;28;20017;-26
2022/08/21 01:50:40;;;;;;;1.60;0.70;;;24.70;59.20;;;;;;5046168;28;20511;-26
2022/08/21 01:53:05;;;;;;;1.13;0.60;;;24.70;59.30;;;;;;5043148;28;20037;-26
2022/08/21 01:55:31;;;;;;;0.45;0.40;;;24.70;59.40;;;;;;5046403;28;20029;-29
2022/08/21 01:57:57;;;;;;;0.55;0.50;;;24.70;59.30;;;;;;5047700;28;20032;-26
2022/08/21 02:00:22;;;;;;;0.73;0.40;;;24.70;59.40;;;;;;5046294;28;20090;-26
2022/08/21 02:02:48;;;;;;;0.70;0.70;;;24.70;59.50;;;;;;5041723;28;20029;-26
2022/08/21 02:05:14;;;;;;;0.63;0.43;;;24.70;59.40;;;;;;5046032;28;20461;-29
2022/08/21 02:07:50;;;;;;;1.60;0.47;;;24.70;59.50;;;;;;5045685;28;20017;-30
2022/08/21 02:10:26;;;;;;;0.95;0.47;;;24.70;59.60;;;;;;5027631;28;20078;-28
2022/08/21 02:12:52;;;;;;;1.10;0.52;;;24.70;59.50;;;;;;5045457;28;20048;-27
2022/08/21 02:15:18;;;;;;;1.00;0.40;;;24.70;59.50;;;;;;5043665;28;20503;-27
2022/08/21 02:17:54;;;;;;;1.92;0.50;;;24.70;59.60;;;;;;5045786;28;20045;-27
2022/08/21 02:20:31;;;;;;;0.55;0.55;;;24.70;59.60;;;;;;5045852;28;20029;-27
2022/08/21 02:22:57;;;;;;;0.98;0.60;;;24.70;59.60;;;;;;5043863;28;20104;-27
2022/08/21 02:25:23;;;;;;;0.60;0.50;;;24.70;59.70;;;;;;5044867;28;20113;-28
2022/08/21 02:27:49;;;;;;;1.10;0.55;;;24.70;59.80;;;;;;5044979;28;20025;-26
2022/08/21 02:30:20;;;;;;;1.38;0.63;;;24.70;59.80;;;;;;5044587;28;20071;-29
2022/08/21 02:32:46;;;;;;;0.82;0.57;;;24.70;59.70;;;;;;5039767;28;20021;-26
2022/08/21 02:35:11;;;;;;;0.60;0.40;;;24.70;59.70;;;;;;5046487;28;20029;-25
2022/08/21 02:37:47;;;;;;;9.50;0.50;;;24.70;59.80;;;;;;5045546;28;20056;-29
2022/08/21 02:40:13;;;;;;;2.05;0.65;;;24.70;59.80;;;;;;5046044;28;20073;-26
2022/08/21 02:42:39;;;;;;;0.77;0.50;;;24.70;59.90;;;;;;5048846;28;20522;-30
2022/08/21 02:45:05;;;;;;;0.52;0.47;;;24.70;59.80;;;;;;5047841;28;20021;-30
2022/08/21 02:47:31;;;;;;;1.75;0.40;;;24.60;59.70;;;;;;5049531;28;20044;-25
2022/08/21 02:49:56;;;;;;;0.22;0.20;;;24.60;60.00;;;;;;5048476;28;20029;-25
2022/08/21 02:52:23;;;;;;;0.55;0.40;;;24.60;59.90;;;;;;5048824;28;20041;-27
2022/08/21 02:54:49;;;;;;;0.88;0.63;;;24.60;59.90;;;;;;5048667;28;20112;-28
2022/08/21 02:57:15;;;;;;;0.70;0.47;;;24.60;60.10;;;;;;5047862;28;20115;-32
2022/08/21 02:59:40;;;;;;;0.75;0.40;;;24.60;59.90;;;;;;5047469;28;20485;-27
2022/08/21 03:02:06;;;;;;;0.60;0.40;;;24.60;60.00;;;;;;5048719;28;20033;-29
2022/08/21 03:04:32;;;;;;;0.95;0.70;;;24.60;59.90;;;;;;5050324;28;20036;-26
2022/08/21 03:06:57;;;;;;;0.77;0.50;;;24.60;59.90;;;;;;5045333;28;20029;-29
2022/08/21 03:09:23;;;;;;;0.75;0.47;;;24.60;60.80;;;;;;5049202;28;20040;-27
2022/08/21 03:11:51;;;;;;;0.60;0.35;;;24.60;60.30;;;;;;5048358;28;20033;-27
2022/08/21 03:14:17;;;;;;;0.38;0.30;;;24.60;60.30;;;;;;5049114;28;20029;-25
2022/08/21 03:16:42;;;;;;;0.63;0.40;;;24.60;60.40;;;;;;5049769;28;20029;-27
2022/08/21 03:19:08;;;;;;;0.60;0.50;;;24.50;60.40;;;;;;5048740;28;20037;-28
2022/08/21 03:21:33;;;;;;;0.50;0.40;;;24.50;60.60;;;;;;5049433;28;20484;-26
2022/08/21 03:23:59;;;;;;;0.73;0.45;;;24.50;60.40;;;;;;5049663;28;20038;-29
2022/08/21 03:26:25;;;;;;;4.95;0.47;;;24.50;60.50;;;;;;5048335;28;20021;-26
2022/08/21 03:28:50;;;;;;;1.20;0.50;;;24.50;60.60;;;;;;5048800;28;20462;-29
2022/08/21 03:31:17;;;;;;;0.60;0.40;;;24.50;60.60;;;;;;5043719;28;20061;-27
2022/08/21 03:33:43;;;;;;;0.40;0.40;;;24.50;60.50;;;;;;5048713;28;20025;-28
2022/08/21 03:36:09;;;;;;;0.50;0.40;;;24.50;60.60;;;;;;5047589;28;20035;-28
2022/08/21 03:38:35;;;;;;;1.17;0.50;;;24.50;60.70;;;;;;5048782;28;20041;-27
2022/08/21 03:41:01;;;;;;;0.60;0.60;;;24.50;60.70;;;;;;5046648;28;20441;-25
2022/08/21 03:43:27;;;;;;;0.73;0.50;;;24.50;60.80;;;;;;5048711;28;22320;-25
2022/08/21 03:45:52;;;;;;;0.40;0.40;;;24.50;60.80;;;;;;5047803;28;20423;-28
2022/08/21 03:48:18;;;;;;;0.45;0.43;;;24.50;60.80;;;;;;5048968;28;20389;-30
2022/08/21 03:50:46;;;;;;;0.77;0.43;;;24.50;60.80;;;;;;5046932;28;20025;-26
2022/08/21 03:53:12;;;;;;;0.40;0.40;;;24.50;60.80;;;;;;5044452;28;20457;-25
2022/08/21 03:55:37;;;;;;;1.55;0.65;;;24.50;60.80;;;;;;5032609;28;20561;-28
2022/08/21 03:58:03;;;;;;;0.88;0.60;;;24.50;60.90;;;;;;5047923;28;20033;-29
2022/08/21 04:00:29;;;;;;;0.50;0.40;;;24.50;60.80;;;;;;5048772;28;20075;-28
2022/08/21 04:02:55;;;;;;;0.40;0.30;;;24.50;60.70;;;;;;5046505;28;20402;-26
2022/08/21 04:05:29;;;;;;;0.30;0.30;;;24.50;60.70;;;;;;5048298;28;20033;-29
2022/08/21 04:08:02;;;;;;;0.77;0.43;;;24.50;60.70;;;;;;5045938;28;20037;-27
2022/08/21 04:10:28;;;;;;;0.40;0.30;;;24.50;60.90;;;;;;5048739;28;20029;-31
2022/08/21 04:12:54;;;;;;;1.20;0.70;;;24.50;60.70;;;;;;5046547;28;20511;-26
2022/08/21 04:15:20;;;;;;;1.00;0.60;;;24.50;60.80;;;;;;5047379;28;20052;-27
2022/08/21 04:17:45;;;;;;;0.57;0.40;;;24.50;60.70;;;;;;5048808;28;20021;-26
2022/08/21 04:20:12;;;;;;;0.30;0.30;;;24.50;60.90;;;;;;5043482;28;20139;-27
2022/08/21 04:22:38;;;;;;;0.40;0.40;;;24.50;60.80;;;;;;5048975;28;20071;-26
2022/08/21 04:25:04;;;;;;;0.70;0.47;;;24.50;60.90;;;;;;5048287;28;20043;-26
2022/08/21 04:27:30;;;;;;;0.45;0.35;;;24.50;60.90;;;;;;5047319;28;20036;-29
2022/08/21 04:29:56;;;;;;;0.30;0.25;;;24.50;61.70;;;;;;5042425;28;20025;-27
2022/08/21 04:32:23;;;;;;;0.73;0.50;;;24.50;60.90;;;;;;5045025;28;20530;-27
2022/08/21 04:34:48;;;;;;;0.30;0.20;;;24.50;61.10;;;;;;5049498;28;20423;-26
2022/08/21 04:37:15;;;;;;;0.52;0.43;;;24.50;61.00;;;;;;5045530;28;20514;-30
2022/08/21 04:39:41;;;;;;;0.38;0.20;;;24.50;60.90;;;;;;5047280;28;20051;-26
2022/08/21 04:42:07;;;;;;;0.30;0.30;;;24.50;61.00;;;;;;5044761;28;20029;-27
2022/08/21 04:44:32;;;;;;;0.52;0.40;;;24.50;61.00;;;;;;5044094;28;20020;-27
2022/08/21 04:46:58;;;;;;;0.43;0.40;;;24.50;61.00;;;;;;5048221;28;20032;-29
2022/08/21 04:49:24;;;;;;;0.70;0.40;;;24.50;61.10;;;;;;5045560;28;20024;-28
2022/08/21 04:51:49;;;;;;;0.40;0.22;;;24.50;61.00;;;;;;5046575;28;20514;-27
2022/08/21 04:54:18;;;;;;;0.60;0.40;;;24.40;61.80;;;;;;5045427;28;20028;-27
2022/08/21 04:56:47;;;;;;;0.60;0.40;;;24.50;61.10;;;;;;5029528;28;20488;-27
2022/08/21 04:59:24;;;;;;;0.20;0.20;;;24.50;60.90;;;;;;5027452;28;20090;-27
2022/08/21 05:01:49;;;;;;;0.38;0.38;;;24.40;61.10;;;;;;5030913;28;20029;-29
2022/08/21 05:04:16;;;;;;;0.55;0.32;;;24.50;60.30;;;;;;5029424;28;20029;-32
2022/08/21 05:06:43;;;;;;;0.47;0.40;;;24.40;61.00;;;;;;5028809;28;20029;-26
2022/08/21 05:09:09;;;;;;;1.52;0.20;;;24.50;60.90;;;;;;5031884;28;20404;-26
2022/08/21 05:11:35;;;;;;;0.50;0.28;;;24.40;61.00;;;;;;5026887;28;20492;-26
2022/08/21 05:14:01;;;;;;;0.75;0.40;;;24.40;61.80;;;;;;5029042;28;20028;-28
2022/08/21 05:16:26;;;;;;;0.80;0.40;;;24.50;61.00;;;;;;5046874;28;20021;-30
2022/08/21 05:18:52;;;;;;;0.43;0.40;;;24.50;60.90;;;;;;5028524;28;20029;-29
2022/08/21 05:21:18;;;;;;;0.43;0.40;;;24.50;61.00;;;;;;5042610;28;20028;-27
2022/08/21 05:23:43;;;;;;;0.68;0.65;;;24.40;61.10;;;;;;5046633;28;20466;-27
2022/08/21 05:26:09;;;;;;;0.40;0.30;;;24.50;61.90;;;;;;5047904;28;20032;-29
2022/08/21 05:28:34;;;;;;;0.40;0.30;;;24.40;61.00;;;;;;5047475;28;20101;-28
2022/08/21 05:31:00;;;;;;;0.43;0.40;;;24.40;61.00;;;;;;5048073;28;20051;-27
2022/08/21 05:33:25;;;;;;;0.50;0.30;;;24.50;60.90;;;;;;5044939;28;20514;-26
2022/08/21 05:35:52;;;;;;;0.45;0.35;;;24.40;61.00;;;;;;5041002;28;20040;-25
2022/08/21 05:38:18;;;;;;;0.40;0.30;;;24.40;60.80;;;;;;5044807;28;20131;-27
2022/08/21 05:40:44;;;;;;;0.30;0.20;;;24.40;60.90;;;;;;5045216;28;20657;-26
2022/08/21 05:43:10;;;;;;;0.65;0.30;;;24.40;61.00;;;;;;5046949;28;20423;-26
2022/08/21 05:45:35;;;;;;;0.63;0.50;;;24.40;61.10;;;;;;5043330;28;20491;-26
2022/08/21 05:48:08;;;;;;;1.15;0.50;;;24.40;61.10;;;;;;5044926;28;20050;-27
2022/08/21 05:50:34;;;;;;;0.40;0.30;;;24.40;61.00;;;;;;5044875;28;20024;-30
2022/08/21 05:53:00;;;;;;;0.32;0.20;;;24.40;61.00;;;;;;5043991;28;20029;-26
2022/08/21 05:55:26;;;;;;;0.32;0.30;;;24.40;60.90;;;;;;5046761;28;20511;-28
2022/08/21 05:57:52;;;;;;;1.35;0.57;;;24.40;61.10;;;;;;5046751;28;20033;-26
2022/08/21 06:00:17;;;;;;;1.48;0.75;;;24.30;62.90;;;;;;5043601;28;20025;-25
2022/08/21 06:02:43;;;;;;;2.10;1.08;;;23.90;60.80;;;;;;5045364;28;20035;-28
2022/08/21 06:05:08;;;;;;;4.22;1.40;;;23.60;60.00;;;;;;5044399;28;20040;-25
2022/08/21 06:07:34;;;;;;;2.15;1.40;;;23.40;59.70;;;;;;5044559;28;20517;-28
2022/08/21 06:10:00;;;;;;;2.40;0.95;;;23.30;60.10;;;;;;5046875;28;20043;-27
2022/08/21 06:12:25;;;;;;;2.70;1.30;;;23.10;60.00;;;;;;5041589;28;20064;-27
2022/08/21 06:14:51;;;;;;;3.53;1.30;;;22.90;60.20;;;;;;5044136;28;20038;-27
2022/08/21 06:17:17;;;;;;;2.50;1.40;;;22.80;60.60;;;;;;5041638;28;20513;-27
2022/08/21 06:19:43;;;;;;;1.85;1.30;;;22.80;60.50;;;;;;5051457;28;20036;-28
2022/08/21 06:22:08;;;;;;;4.93;1.52;;;22.70;60.70;;;;;;5044716;28;20040;-25
2022/08/21 06:24:35;;;;;;;4.10;1.60;;;22.70;60.90;;;;;;5042648;28;20068;-27
2022/08/21 06:27:08;;;;;;;3.60;1.30;;;22.60;61.10;;;;;;4940578;28;10001587;-29
2022/08/21 06:29:34;;;;;;;3.08;1.20;;;22.50;61.70;;;;;;5041074;28;20370;-29
2022/08/21 06:32:00;;;;;;;2.97;1.20;;;22.50;61.90;;;;;;5046490;28;20570;-26
2022/08/21 06:34:25;;;;;;;3.80;1.35;;;22.40;62.10;;;;;;5045170;28;20036;-28
2022/08/21 06:36:51;;;;;;;2.42;1.30;;;22.30;62.40;;;;;;5043980;28;20051;-28
2022/08/21 06:39:16;;;;;;;3.22;1.30;;;22.30;62.40;;;;;;5042926;28;20032;-32
2022/08/21 06:41:42;;;;;;;4.03;1.40;;;22.30;62.50;;;;;;5043424;28;20029;-27
2022/08/21 06:44:08;;;;;;;4.22;1.60;;;22.10;62.80;;;;;;5042065;28;20104;-27
2022/08/21 06:46:33;;;;;;;2.90;1.30;;;22.10;63.10;;;;;;5043676;28;20913;-28
2022/08/21 06:48:59;;;;;;;2.72;1.40;;;22.10;63.00;;;;;;5045430;28;20028;-27
2022/08/21 06:51:27;;;;;;;4.47;1.65;;;22.10;63.10;;;;;;5043278;28;20021;-24
2022/08/21 06:53:53;;;;;;;3.33;1.27;;;22.00;63.40;;;;;;5038306;28;20033;-25
2022/08/21 06:56:19;;;;;;;2.28;1.10;;;22.00;63.30;;;;;;5042804;28;20037;-27
2022/08/21 06:58:44;;;;;;;3.00;1.10;;;22.00;63.50;;;;;;5039117;28;20139;-26
2022/08/21 07:01:10;;;;;;;1.95;0.85;;;21.90;63.90;;;;;;5032486;28;20052;-27
2022/08/21 07:03:37;;;;;;;5.25;1.10;;;21.90;63.80;;;;;;4688105;28;10000387;-25
2022/08/21 07:06:04;;;;;;;2.73;1.13;;;22.00;64.00;;;;;;4690371;28;10000473;-27
2022/08/21 07:08:29;;;;;;;2.72;1.08;;;22.00;63.90;;;;;;5038958;28;20442;-27
2022/08/21 07:10:57;;;;;;;2.67;1.00;;;22.00;64.10;;;;;;5044077;28;20025;-27
2022/08/21 07:13:22;;;;;;;6.35;1.42;;;22.00;64.10;;;;;;5022710;28;20064;-31
2022/08/21 07:15:48;;;;;;;5.25;1.10;;;22.00;64.00;;;;;;5044719;28;20029;-29
2022/08/21 07:18:13;;;;;;;3.47;1.40;;;22.00;63.80;;;;;;5042128;28;20112;-29
2022/08/21 07:20:39;;;;;;;2.92;1.45;;;21.90;64.10;;;;;;5036345;28;20397;-27
2022/08/21 07:23:07;;;;;;;4.13;1.25;;;21.90;64.10;;;;;;5041359;28;20105;-26
2022/08/21 07:25:33;;;;;;;3.55;1.33;;;21.90;64.00;;;;;;5022682;28;20044;-27
2022/08/21 07:27:58;;;;;;;3.97;1.50;;;21.80;64.30;;;;;;5045380;28;20025;-28
2022/08/21 07:30:24;;;;;;;3.60;1.20;;;21.90;64.50;;;;;;5043762;28;20435;-29
2022/08/21 07:32:50;;;;;;;3.90;1.08;;;22.00;64.50;;;;;;5027259;28;20122;-30
2022/08/21 07:35:16;;;;;;;3.06;1.27;;;22.00;64.50;;;;;;4698163;28;10001124;-27
2022/08/21 07:37:42;;;;;;;3.78;1.17;;;22.00;64.80;;;;;;5041249;28;20029;-25
2022/08/21 07:40:08;;;;;;;2.13;0.95;;;22.00;64.80;;;;;;5040253;28;20522;-27
2022/08/21 07:42:33;;;;;;;4.25;1.15;;;22.00;64.90;;;;;;5042338;28;20090;-26
2022/08/21 07:44:59;;;;;;;2.60;1.35;;;22.00;64.90;;;;;;5043532;28;20029;-25
2022/08/21 07:47:25;;;;;;;3.78;1.30;;;22.00;65.40;;;;;;5042721;28;20017;-26
2022/08/21 07:49:50;;;;;;;2.55;1.20;;;22.00;64.20;;;;;;5044864;28;22388;-25
2022/08/21 07:52:16;;;;;;;3.78;1.30;;;22.00;65.00;;;;;;5040482;28;20043;-25
2022/08/21 07:54:41;;;;;;;3.80;1.20;;;22.00;64.10;;;;;;5041067;28;20462;-25
2022/08/21 07:57:07;;;;;;;1.88;0.95;;;22.00;64.60;;;;;;5042490;28;20049;-26
2022/08/21 07:59:32;;;;;;;4.97;1.58;;;21.90;64.80;;;;;;5039310;28;20977;-29
2022/08/21 08:01:58;;;;;;;3.80;1.38;;;21.90;64.80;;;;;;5039262;28;20021;-27
2022/08/21 08:04:24;;;;;;;2.95;1.20;;;21.80;65.10;;;;;;5028152;28;20129;-28
2022/08/21 08:06:50;;;;;;;3.17;1.20;;;21.90;64.70;;;;;;5005638;28;20072;-29
2022/08/21 08:09:16;;;;;;;6.55;1.27;;;22.00;64.60;;;;;;5013334;28;20511;-27
2022/08/21 08:11:45;;;;;;;4.03;1.30;;;22.00;64.50;;;;;;5012626;28;20029;-28
2022/08/21 08:14:11;;;;;;;2.60;1.10;;;22.00;64.80;;;;;;5015877;28;20065;-29
2022/08/21 08:16:37;;;;;;;3.38;1.23;;;21.90;65.00;;;;;;5001982;28;20042;-28
2022/08/21 08:19:03;;;;;;;2.72;1.10;;;22.00;65.00;;;;;;5009730;28;20041;-32
2022/08/21 08:21:28;;;;;;;3.15;1.20;;;21.90;64.90;;;;;;5005718;28;20938;-28
2022/08/21 08:23:54;;;;;;;4.25;1.85;;;21.90;65.00;;;;;;5019517;28;20156;-27
2022/08/21 08:26:20;;;;;;;4.60;0.90;;;21.90;64.90;;;;;;5009532;28;20048;-29
2022/08/21 08:28:47;;;;;;;3.58;1.30;;;21.90;64.70;;;;;;5034551;28;20130;-27
2022/08/21 08:31:13;;;;;;;2.75;1.02;;;21.80;64.80;;;;;;5033070;28;20052;-28
2022/08/21 08:33:38;;;;;;;2.80;0.98;;;21.90;64.40;;;;;;5034473;28;20037;-26
2022/08/21 08:36:04;;;;;;;3.15;1.10;;;21.90;64.50;;;;;;5035731;28;20053;-31
2022/08/21 08:38:30;;;;;;;1.63;0.77;;;21.90;64.40;;;;;;5031886;28;22392;-28
2022/08/21 08:41:10;;;;;;;3.22;1.20;;;21.90;64.40;;;;;;5029341;28;20408;-25
2022/08/21 08:43:36;;;;;;;3.60;1.40;;;22.00;64.50;;;;;;5037940;28;20056;-30
2022/08/21 08:46:04;;;;;;;1.90;0.90;;;22.10;63.90;;;;;;5037845;28;20041;-31
2022/08/21 08:48:54;;;;;;;2.50;1.30;;;22.00;64.10;;;;;;5004074;28;20044;-28
2022/08/21 08:51:51;;;;;;;2.33;1.10;;;22.00;64.20;;;;;;5037763;28;20048;-27
2022/08/21 08:54:38;;;;;;;2.25;1.20;;;22.00;64.30;;;;;;5015862;28;20055;-29
2022/08/21 08:57:10;;;;;;;5.30;1.10;;;22.10;64.00;;;;;;5002987;28;20041;-32
2022/08/21 08:59:39;;;;;;;4.03;1.30;;;22.10;64.30;;;;;;4672853;28;10000246;-26
2022/08/21 09:02:05;;;;;;;3.33;1.30;;;22.30;63.80;;;;;;5031703;28;20056;-29
2022/08/21 09:04:31;;;;;;;2.08;1.23;;;22.40;63.30;;;;;;5032814;28;20036;-26
2022/08/21 09:07:38;;;;;;;3.22;1.33;;;22.40;63.60;;;;;;5035029;28;20136;-29
2022/08/21 09:10:04;;;;;;;2.13;0.85;;;22.40;63.10;;;;;;5033451;28;20037;-28
2022/08/21 09:12:52;;;;;;;3.35;1.10;;;22.60;62.70;;;;;;5034093;28;20060;-27
2022/08/21 09:15:21;;;;;;;1.73;1.20;;;22.60;62.50;;;;;;5004301;28;20044;-28
2022/08/21 09:18:14;;;;;;;2.40;1.00;;;22.70;61.90;;;;;;5037387;28;20106;-26
2022/08/21 09:21:09;;;;;;;1.98;0.90;;;22.70;62.10;;;;;;5039235;28;20098;-28
2022/08/21 09:23:49;;;;;;;2.88;0.90;;;22.70;61.80;;;;;;5019186;28;20414;-26
2022/08/21 09:26:20;;;;;;;1.70;1.02;;;22.70;61.90;;;;;;5038426;28;20515;-32
2022/08/21 09:28:47;;;;;;;1.40;0.77;;;22.70;61.90;;;;;;5037835;28;20053;-26
2022/08/21 09:31:26;;;;;;;2.22;1.42;;;22.70;61.80;;;;;;5019009;28;20076;-28
2022/08/21 09:34:06;;;;;;;1.92;0.90;;;22.80;61.50;;;;;;5020866;28;20049;-27
2022/08/21 09:36:40;;;;;;;4.15;1.00;;;22.70;61.20;;;;;;5035585;28;20072;-27
2022/08/21 09:39:06;;;;;;;2.75;0.90;;;22.70;61.30;;;;;;5011127;28;20068;-29
2022/08/21 09:41:34;;;;;;;1.45;0.77;;;22.80;61.30;;;;;;5018266;28;20136;-29
2022/08/21 09:44:00;;;;;;;2.30;0.93;;;22.80;61.10;;;;;;5021397;28;20041;-29
2022/08/21 09:46:26;;;;;;;2.90;1.25;;;22.90;61.20;;;;;;5016224;28;20047;-27
2022/08/21 09:48:58;;;;;;;1.33;0.80;;;22.90;61.30;;;;;;5014036;28;20463;-27
2022/08/21 09:51:26;;;;;;;2.47;1.00;;;22.90;61.70;;;;;;5015478;28;20041;-29
2022/08/21 09:54:04;;;;;;;2.13;0.80;;;22.90;61.20;;;;;;5019690;28;20049;-28
2022/08/21 09:59:37;;;;;;;1.77;0.85;;;22.90;61.30;;;;;;5015429;28;20092;-29
2022/08/21 10:02:19;;;;;;;1.70;0.70;;;22.90;60.90;;;;;;5013918;28;20046;-29
2022/08/21 10:04:49;;;;;;;1.67;0.88;;;22.90;61.10;;;;;;5019660;28;20106;-28
2022/08/21 10:07:15;;;;;;;2.45;0.90;;;22.90;61.90;;;;;;5016161;28;20034;-27
2022/08/21 10:09:41;;;;;;;1.38;0.60;;;22.90;61.20;;;;;;5014365;28;20037;-27
2022/08/21 10:12:15;;;;;;;4.90;0.88;;;22.90;61.40;;;;;;5016242;28;20033;-28
2022/08/21 10:14:59;;;;;;;2.30;0.70;;;23.00;61.20;;;;;;4999462;28;20107;-33
2022/08/21 10:17:43;;;;;;;1.73;0.90;;;23.00;61.00;;;;;;5035037;28;20049;-28
2022/08/21 10:20:11;;;;;;;;;;;23.00;61.10;;;;;;5022201;28;20033;-28
2022/08/21 10:22:47;;;;;;;1.10;0.60;;;23.00;61.30;;;;;;5037900;28;19917;-30
2022/08/21 10:25:43;;;;;;;1.65;0.90;;;23.00;62.00;;;;;;5014533;28;20071;-29
2022/08/21 10:28:26;;;;;;;2.22;0.80;;;23.10;61.80;;;;;;5000171;28;20034;-29
2022/08/21 10:31:28;;;;;;;1.48;0.80;;;23.10;61.30;;;;;;4999661;28;20068;-28
2022/08/21 10:34:13;;;;;;;1.88;0.80;;;23.10;62.50;;;;;;4947712;28;20042;-30
2022/08/21 10:36:41;;;;;;;2.08;0.98;;;23.10;62.10;;;;;;4938459;28;20057;-26
2022/08/21 10:39:28;;;;;;;1.35;0.82;;;23.20;62.10;;;;;;4942582;28;20039;-27
2022/08/21 10:42:35;;;;;;;1.42;0.75;;;23.20;61.90;;;;;;4938056;28;20043;-29
2022/08/21 10:45:01;;;;;;;1.80;0.77;;;23.30;61.80;;;;;;4853508;29;20041;-30
2022/08/21 10:47:47;;;;;;;3.55;1.00;;;23.30;62.10;;;;;;4852655;29;20059;-27
2022/08/21 10:50:31;;;;;;;0.88;0.60;;;23.30;61.90;;;;;;4847893;29;20033;-28
2022/08/21 10:53:34;;;;;;;1.10;0.60;;;23.30;61.80;;;;;;4855111;29;20152;-27
2022/08/21 10:56:12;;;;;;;0.80;0.50;;;23.40;62.10;;;;;;4506128;29;10000307;-32
2022/08/21 10:58:40;;;;;;;0.73;0.52;;;23.40;62.20;;;;;;4845432;29;20037;-32
2022/08/21 11:01:28;;;;;;;0.85;0.63;;;23.40;62.20;;;;;;4842254;29;20049;-27
2022/08/21 11:04:19;;;;;;;1.30;0.70;;;23.30;62.20;;;;;;4833149;29;20061;-28
2022/08/21 11:07:06;;;;;;;1.30;0.88;;;23.40;63.00;;;;;;4847469;29;20048;-27
2022/08/21 11:09:32;;;;;;;1.45;0.73;;;23.40;64.10;;;;;;4906924;29;20044;-28
2022/08/21 11:12:06;;;;;;;1.05;0.60;;;23.30;64.20;;;;;;4902218;29;20482;-33
2022/08/21 11:14:41;;;;;;;1.13;0.60;;;23.30;64.00;;;;;;4897432;29;20048;-30
2022/08/21 11:17:11;;;;;;;1.35;0.73;;;23.40;63.90;;;;;;4997812;28;20749;-31
2022/08/21 11:19:48;;;;;;;1.13;0.60;;;23.40;63.90;;;;;;4995239;28;20054;-27
2022/08/21 11:22:13;;;;;;;1.05;0.50;;;23.40;64.00;;;;;;4995587;28;20138;-28
2022/08/21 11:24:57;;;;;;;0.47;0.40;;;23.50;63.20;;;;;;4996653;28;20608;-31
2022/08/21 11:27:25;;;;;;;1.30;0.50;;;23.50;63.20;;;;;;4996563;28;20056;-28
2022/08/21 11:29:54;;;;;;;1.33;0.68;;;23.50;63.30;;;;;;4996610;28;20065;-28
2022/08/21 11:32:41;;;;;;;1.10;0.68;;;23.50;63.10;;;;;;5002177;28;20405;-28
2022/08/21 11:35:34;;;;;;;1.65;0.40;;;23.60;63.00;;;;;;4999970;28;20052;-29
2022/08/21 11:38:12;;;;;;;0.82;0.40;;;23.50;62.90;;;;;;5002265;28;20161;-31
2022/08/21 11:40:59;;;;;;;0.70;0.50;;;23.60;62.30;;;;;;5000423;28;20045;-28
2022/08/21 11:43:30;;;;;;;1.35;0.60;;;23.60;63.20;;;;;;5001055;28;20773;-30
2022/08/21 11:46:00;;;;;;;1.00;0.82;;;23.60;63.40;;;;;;4994791;28;20034;-26
2022/08/21 11:48:29;;;;;;;1.08;0.82;;;23.60;63.60;;;;;;4999363;28;20034;-26
2022/08/21 11:50:54;;;;;;;0.73;0.40;;;23.60;63.90;;;;;;4649268;28;10000276;-30
2022/08/21 11:53:23;;;;;;;1.52;0.45;;;23.70;63.30;;;;;;5002074;28;20029;-26
2022/08/21 11:55:50;;;;;;;0.90;0.60;;;23.70;63.50;;;;;;5009027;28;20121;-29
2022/08/21 11:58:29;;;;;;;0.77;0.60;;;23.70;63.70;;;;;;5004517;28;20041;-29
2022/08/21 12:01:05;;;;;;;0.88;0.30;;;23.70;63.50;;;;;;5007159;28;20018;-26
2022/08/21 12:03:31;;;;;;;1.30;0.70;;;23.70;63.20;;;;;;5000072;28;20033;-26
2022/08/21 12:06:00;;;;;;;2.92;0.40;;;23.70;63.10;;;;;;5013518;28;20033;-29
2022/08/21 12:08:46;;;;;;;1.80;0.43;;;23.70;63.40;;;;;;5006327;28;20068;-27
2022/08/21 12:11:18;;;;;;;2.03;0.70;;;23.80;63.20;;;;;;5005842;28;20037;-26
2022/08/21 12:14:07;;;;;;;0.85;0.50;;;23.70;63.10;;;;;;5007319;28;20022;-31
2022/08/21 12:16:37;;;;;;;1.42;0.60;;;23.80;63.10;;;;;;5007587;28;20590;-30
2022/08/21 12:19:19;;;;;;;0.70;0.40;;;23.80;63.10;;;;;;5009209;28;20057;-28
2022/08/21 12:22:09;;;;;;;2.03;0.57;;;23.70;63.30;;;;;;5006774;28;20444;-27
2022/08/21 12:24:47;;;;;;;2.10;0.90;;;23.70;63.40;;;;;;5008689;28;20034;-26
2022/08/21 12:27:21;;;;;;;1.95;0.40;;;23.70;63.40;;;;;;5003429;28;20034;-26
2022/08/21 12:29:48;;;;;;;0.70;0.60;;;23.70;63.50;;;;;;5004791;28;20430;-28
2022/08/21 12:32:14;;;;;;;1.92;0.50;;;23.70;63.40;;;;;;5008788;28;20026;-27
2022/08/21 12:34:48;;;;;;;1.02;0.35;;;23.70;63.30;;;;;;5009720;28;20029;-29
2022/08/21 12:37:39;;;;;;;1.00;0.52;;;23.70;63.40;;;;;;5007426;28;20026;-30
2022/08/21 12:40:28;;;;;;;0.70;0.43;;;23.70;63.40;;;;;;5018700;28;20136;-27
2022/08/21 12:42:55;;;;;;;1.45;0.45;;;23.80;63.40;;;;;;5022559;28;20120;-27
2022/08/21 12:45:28;;;;;;;0.60;0.50;;;23.70;63.10;;;;;;5026967;28;20029;-28
2022/08/21 12:48:01;;;;;;;0.77;0.57;;;23.80;64.00;;;;;;5028873;28;20507;-29
2022/08/21 12:50:48;;;;;;;0.75;0.45;;;23.80;63.00;;;;;;5026710;28;20496;-28
2022/08/21 12:53:26;;;;;;;1.25;0.43;;;23.80;63.10;;;;;;5022007;28;20500;-29
2022/08/21 12:55:52;;;;;;;0.57;0.50;;;23.80;63.10;;;;;;5027515;28;20356;-29
2022/08/21 12:58:22;;;;;;;2.38;0.50;;;23.80;63.10;;;;;;5030702;28;20041;-29
2022/08/21 13:00:55;;;;;;;1.40;0.40;;;23.80;63.20;;;;;;5026753;28;20073;-28